Ashford, WA

10:29 AM PDT on March 25, 2017 (GMT -0700)
Alpine Village | | Change Station

Elev 1842 ft 46.76 °N, 121.99 °W | Updated 56 seconds ago

Overcast
Overcast
43.3 °F
Feels Like 43 °F
N
0.0
Wind Variable Wind from NW
Gusts 0.0 mph

Today
High -- | Low -- °F
--% Chance of Precip.
Yesterday
High -- | Low -- °F
Precip. -- in
Pressure 30.13 in
Visibility 10.0 miles
Clouds Mostly Cloudy 1500 ft
Mostly Cloudy 2100 ft
Mostly Cloudy 3300 ft
Overcast 7500 ft
Windchill 43 °F
Dew Point 41 °F
Humidity 90%
Rainfall 0.04 in
Snow Depth Not available.
7:00 AM 7:28 PM
Waning Crescent, 7% visible
SPECI KTCM 251723Z AUTO 22012KT 10SM BKN015 BKN021 BKN033 OVC075 08/08 A3013 RMK AO2 $
Pressure 30.13 in
Visibility 10.0 miles
Clouds Mostly Cloudy 1500 ft
Mostly Cloudy 2100 ft
Mostly Cloudy 3300 ft
Overcast 7500 ft
Windchill 43 °F
Dew Point 41 °F
Humidity 90%
Rainfall 0.04 in
Snow Depth Not available.
7:00 AM 7:28 PM
Waning Crescent, 7% visible
SPECI KTCM 251723Z AUTO 22012KT 10SM BKN015 BKN021 BKN033 OVC075 08/08 A3013 RMK AO2 $

Get Severe Weather Alerts

Thanks for signing up!

Be on the lookout for a verification email in your inbox.

You'll start receiving the daily forecast at 8 AM.

×

10-Day Weather Forecast

Almanac

Astronomy

Mar. 25, 2017 Rise Set
Actual Time
Civil Twilight
Nautical Twilight
Astronomical Twilight
Moon
Length of Visible Light
Length of Day
Tomorrow will be .
, % of the Moon is Illuminated

Today's Extremes

State Highs State Lows

Community

WunderPhotos

Upload Photos

1,962,540 photos uploaded!

WunderBlog® & News

Nearby

Air Quality

  Air Quality AQ Index Pollutant
Not available.

Snow Depth

Station Depth Elevation

Earthquake Activity

City Distance Mag. Time & Date
Minimum magnitude displayed is 2.5.

Earthquake Activity

City Distance Mag. Time & Date
Minimum magnitude displayed is 2.5.

Coastal Water Temperatures

Place Temperature

Stations

Nearby Weather Stations

Station Location Temp. Windchill Dew Point Humidity Wind Precip. Elev Updated Type
                   

Watches & Warnings

There are currently no watches in effect.